Terminal Aerodrome Forecast
Issued by NWS

Home | Current Version | Previous Version | Text Only | Print | Product List | Glossary On
Versions: 1 2 3 4 5 6 7 8 9 10 11 12 13 14 15
000
FTUS44 KCRP 281128
TAFALI
TAF
KALI 281128Z 2812/2912 16004KT P6SM FEW020
      TEMPO 2812/2813 2SM BR FEW012
     FM281500 17011KT P6SM FEW030
     FM282100 14017G23KT P6SM FEW060
     FM290200 15011KT P6SM SKC
     FM291000 16004KT 6SM BR SCT020=

USA.gov is the U.S. government's official web portal to all federal, state and local government web resources and services.